Terminal Aerodrome Forecast
Issued by NWS Twin Cities, MN

Home | Current Version | Previous Version | Text Only | Print | Product List | Glossary On
Versions: 1 2 3 4 5 6 7 8 9 10 11 12 13 14 15 16 17 18 19
000
FTUS43 KMPX 010542
TAFEAU
TAF
KEAU 010542Z 0106/0206 04012KT P6SM BKN025 OVC100
     FM011000 04012G19KT 4SM -SN OVC020
      TEMPO 0111/0114 1 1/2SM -SN OVC020
     FM011500 05011KT P6SM BKN020 OVC080
     FM011900 01013KT P6SM SCT020=

USA.gov is the U.S. government's official web portal to all federal, state and local government web resources and services.